sensor_id;sensor_type;location;lat;lon;timestamp;pressure;altitude;pressure_sealevel;temperature;humidity
39435;BME280;66825;51.880;-0.518;2023-06-19T00:01:58;99861.97;;;22.28;44.73
39435;BME280;66825;51.880;-0.518;2023-06-19T00:04:24;99782.06;;;21.76;44.82
39435;BME280;66825;51.880;-0.518;2023-06-19T00:06:50;99776.47;;;21.72;44.58
39435;BME280;66825;51.880;-0.518;2023-06-19T00:09:16;99827.97;;;22.04;44.61
39435;BME280;66825;51.880;-0.518;2023-06-19T00:11:42;99790.84;;;21.82;44.71
39435;BME280;66825;51.880;-0.518;2023-06-19T00:14:08;99863.66;;;22.32;44.77
39435;BME280;66825;51.880;-0.518;2023-06-19T00:16:33;99803.63;;;21.90;44.70
39435;BME280;66825;51.880;-0.518;2023-06-19T00:18:59;99865.63;;;22.32;44.81
39435;BME280;66825;51.880;-0.518;2023-06-19T00:21:25;99878.19;;;22.33;44.69
39435;BME280;66825;51.880;-0.518;2023-06-19T00:23:51;99853.97;;;22.23;44.78
39435;BME280;66825;51.880;-0.518;2023-06-19T00:26:18;99848.06;;;22.20;44.84
39435;BME280;66825;51.880;-0.518;2023-06-19T00:28:44;99860.81;;;22.29;44.76
39435;BME280;66825;51.880;-0.518;2023-06-19T00:31:13;99869.50;;;22.31;44.75
39435;BME280;66825;51.880;-0.518;2023-06-19T00:33:39;99787.56;;;21.76;44.73
39435;BME280;66825;51.880;-0.518;2023-06-19T00:36:12;99873.06;;;22.31;44.86
39435;BME280;66825;51.880;-0.518;2023-06-19T00:38:39;99880.13;;;22.32;44.78
39435;BME280;66825;51.880;-0.518;2023-06-19T00:41:04;99878.09;;;22.29;44.90
39435;BME280;66825;51.880;-0.518;2023-06-19T00:43:31;99887.09;;;22.30;44.76
39435;BME280;66825;51.880;-0.518;2023-06-19T00:46:01;99887.56;;;22.32;44.71
39435;BME280;66825;51.880;-0.518;2023-06-19T00:48:27;99798.53;;;21.76;44.66
39435;BME280;66825;51.880;-0.518;2023-06-19T00:50:54;99866.44;;;22.20;44.55
39435;BME280;66825;51.880;-0.518;2023-06-19T00:53:22;99873.28;;;22.26;44.76
39435;BME280;66825;51.880;-0.518;2023-06-19T00:55:48;99858.44;;;22.15;44.79
39435;BME280;66825;51.880;-0.518;2023-06-19T00:58:15;99859.69;;;22.17;44.72
39435;BME280;66825;51.880;-0.518;2023-06-19T01:00:41;99888.34;;;22.32;44.96
39435;BME280;66825;51.880;-0.518;2023-06-19T01:03:06;99879.69;;;22.30;44.73
39435;BME280;66825;51.880;-0.518;2023-06-19T01:05:32;99884.03;;;22.31;44.82
39435;BME280;66825;51.880;-0.518;2023-06-19T01:08:04;99804.00;;;21.76;44.85
39435;BME280;66825;51.880;-0.518;2023-06-19T01:10:37;99882.13;;;22.19;45.00
39435;BME280;66825;51.880;-0.518;2023-06-19T01:13:12;99871.81;;;22.16;44.71
39435;BME280;66825;51.880;-0.518;2023-06-19T01:15:41;99883.81;;;22.24;44.70
39435;BME280;66825;51.880;-0.518;2023-06-19T01:18:07;99875.81;;;22.19;44.87
39435;BME280;66825;51.880;-0.518;2023-06-19T01:20:32;99885.97;;;22.31;44.73
39435;BME280;66825;51.880;-0.518;2023-06-19T01:23:06;99815.09;;;21.80;44.88
39435;BME280;66825;51.880;-0.518;2023-06-19T01:25:32;99891.00;;;22.29;44.90
39435;BME280;66825;51.880;-0.518;2023-06-19T01:27:58;99894.19;;;22.31;44.81
39435;BME280;66825;51.880;-0.518;2023-06-19T01:30:23;99812.66;;;21.78;44.87
39435;BME280;66825;51.880;-0.518;2023-06-19T01:33:12;99895.00;;;22.31;44.84
39435;BME280;66825;51.880;-0.518;2023-06-19T01:35:42;99880.97;;;22.20;44.89
39435;BME280;66825;51.880;-0.518;2023-06-19T01:38:08;99885.41;;;22.25;44.87
39435;BME280;66825;51.880;-0.518;2023-06-19T01:40:34;99883.22;;;22.31;44.91
39435;BME280;66825;51.880;-0.518;2023-06-19T01:43:01;99880.25;;;22.24;44.89
39435;BME280;66825;51.880;-0.518;2023-06-19T01:45:28;99865.97;;;22.18;45.02
39435;BME280;66825;51.880;-0.518;2023-06-19T01:47:54;99882.44;;;22.30;44.92
39435;BME280;66825;51.880;-0.518;2023-06-19T01:50:23;99887.09;;;22.30;44.74
39435;BME280;66825;51.880;-0.518;2023-06-19T01:52:50;99792.13;;;21.72;44.85
39435;BME280;66825;51.880;-0.518;2023-06-19T01:55:16;99879.69;;;22.30;44.95
39435;BME280;66825;51.880;-0.518;2023-06-19T01:57:41;99885.50;;;22.29;44.93
39435;BME280;66825;51.880;-0.518;2023-06-19T02:00:07;99880.38;;;22.27;45.00
39435;BME280;66825;51.880;-0.518;2023-06-19T02:02:33;99889.06;;;22.29;45.00
39435;BME280;66825;51.880;-0.518;2023-06-19T02:04:59;99880.00;;;22.29;45.13
39435;BME280;66825;51.880;-0.518;2023-06-19T02:07:25;99878.34;;;22.24;44.93
39435;BME280;66825;51.880;-0.518;2023-06-19T02:09:50;99879.13;;;22.25;44.94
39435;BME280;66825;51.880;-0.518;2023-06-19T02:12:16;99801.47;;;21.71;44.86
39435;BME280;66825;51.880;-0.518;2023-06-19T02:14:41;99893.72;;;22.29;45.02
39435;BME280;66825;51.880;-0.518;2023-06-19T02:17:07;99901.19;;;22.28;45.01
39435;BME280;66825;51.880;-0.518;2023-06-19T02:19:32;99886.88;;;22.23;44.90
39435;BME280;66825;51.880;-0.518;2023-06-19T02:21:58;99904.72;;;22.29;44.81
39435;BME280;66825;51.880;-0.518;2023-06-19T02:24:24;99897.66;;;22.28;44.85
39435;BME280;66825;51.880;-0.518;2023-06-19T02:26:50;99898.31;;;22.25;44.97
39435;BME280;66825;51.880;-0.518;2023-06-19T02:29:15;99909.75;;;22.27;45.04
39435;BME280;66825;51.880;-0.518;2023-06-19T02:31:41;99909.41;;;22.28;44.93
39435;BME280;66825;51.880;-0.518;2023-06-19T02:34:08;99908.63;;;22.28;44.90
39435;BME280;66825;51.880;-0.518;2023-06-19T02:36:34;99900.28;;;22.24;45.05
39435;BME280;66825;51.880;-0.518;2023-06-19T02:39:04;99862.69;;;22.00;44.86
39435;BME280;66825;51.880;-0.518;2023-06-19T02:41:31;99908.50;;;22.24;45.13
39435;BME280;66825;51.880;-0.518;2023-06-19T02:43:57;99919.94;;;22.26;45.13
39435;BME280;66825;51.880;-0.518;2023-06-19T02:46:23;99920.75;;;22.27;45.04
39435;BME280;66825;51.880;-0.518;2023-06-19T02:48:48;99834.03;;;21.72;45.09
39435;BME280;66825;51.880;-0.518;2023-06-19T02:51:14;99923.47;;;22.27;45.03
39435;BME280;66825;51.880;-0.518;2023-06-19T02:53:39;99926.22;;;22.27;45.01
39435;BME280;66825;51.880;-0.518;2023-06-19T02:56:05;99904.03;;;22.07;44.98
39435;BME280;66825;51.880;-0.518;2023-06-19T02:58:33;99919.38;;;22.20;44.92
39435;BME280;66825;51.880;-0.518;2023-06-19T03:00:59;99886.59;;;21.99;44.99
39435;BME280;66825;51.880;-0.518;2023-06-19T03:03:25;99932.84;;;22.26;44.97
39435;BME280;66825;51.880;-0.518;2023-06-19T03:05:51;99927.38;;;22.26;45.09
39435;BME280;66825;51.880;-0.518;2023-06-19T03:08:17;99935.59;;;22.26;45.01
39435;BME280;66825;51.880;-0.518;2023-06-19T03:10:42;99940.63;;;22.24;45.01
39435;BME280;66825;51.880;-0.518;2023-06-19T03:13:08;99920.97;;;22.09;44.89
39435;BME280;66825;51.880;-0.518;2023-06-19T03:15:34;99950.47;;;22.25;45.09
39435;BME280;66825;51.880;-0.518;2023-06-19T03:18:02;99948.50;;;22.25;44.93
39435;BME280;66825;51.880;-0.518;2023-06-19T03:20:31;99949.22;;;22.22;44.98
39435;BME280;66825;51.880;-0.518;2023-06-19T03:22:58;99946.81;;;22.20;44.98
39435;BME280;66825;51.880;-0.518;2023-06-19T03:25:23;99964.97;;;22.25;44.93
39435;BME280;66825;51.880;-0.518;2023-06-19T03:27:49;99959.81;;;22.24;45.13
39435;BME280;66825;51.880;-0.518;2023-06-19T03:30:14;99959.72;;;22.20;44.81
39435;BME280;66825;51.880;-0.518;2023-06-19T03:32:43;99958.94;;;22.19;44.98
39435;BME280;66825;51.880;-0.518;2023-06-19T03:35:09;99909.09;;;21.80;44.92
39435;BME280;66825;51.880;-0.518;2023-06-19T03:37:35;99968.75;;;22.20;44.93
39435;BME280;66825;51.880;-0.518;2023-06-19T03:40:01;99888.66;;;21.65;44.71
39435;BME280;66825;51.880;-0.518;2023-06-19T03:42:28;99978.91;;;22.20;44.86
39435;BME280;66825;51.880;-0.518;2023-06-19T03:44:54;99901.41;;;21.73;44.93
39435;BME280;66825;51.880;-0.518;2023-06-19T03:47:20;99920.16;;;21.84;45.13
39435;BME280;66825;51.880;-0.518;2023-06-19T03:49:46;99973.09;;;22.21;45.07
39435;BME280;66825;51.880;-0.518;2023-06-19T03:52:11;99966.47;;;22.10;45.05
39435;BME280;66825;51.880;-0.518;2023-06-19T03:54:37;99831.09;;;21.19;45.22
39435;BME280;66825;51.880;-0.518;2023-06-19T03:57:02;99916.97;;;21.69;45.12
39435;BME280;66825;51.880;-0.518;2023-06-19T03:59:28;99988.66;;;22.17;45.04
39435;BME280;66825;51.880;-0.518;2023-06-19T04:01:54;99879.88;;;21.38;44.97
39435;BME280;66825;51.880;-0.518;2023-06-19T04:04:19;99998.59;;;22.22;45.00
39435;BME280;66825;51.880;-0.518;2023-06-19T04:06:45;100002.13;;;22.23;44.96
39435;BME280;66825;51.880;-0.518;2023-06-19T04:09:12;100005.22;;;22.21;45.06
39435;BME280;66825;51.880;-0.518;2023-06-19T04:11:38;100007.19;;;22.20;44.89
39435;BME280;66825;51.880;-0.518;2023-06-19T04:14:03;100010.72;;;22.21;44.92
39435;BME280;66825;51.880;-0.518;2023-06-19T04:16:29;100012.31;;;22.22;45.04
39435;BME280;66825;51.880;-0.518;2023-06-19T04:18:54;99916.69;;;21.50;44.75
39435;BME280;66825;51.880;-0.518;2023-06-19T04:21:20;100025.56;;;22.20;45.04
39435;BME280;66825;51.880;-0.518;2023-06-19T04:23:45;100019.50;;;22.14;45.04
39435;BME280;66825;51.880;-0.518;2023-06-19T04:26:11;100034.59;;;22.20;44.89
39435;BME280;66825;51.880;-0.518;2023-06-19T04:28:36;100033.00;;;22.19;45.00
39435;BME280;66825;51.880;-0.518;2023-06-19T04:31:02;99968.69;;;21.71;45.04
39435;BME280;66825;51.880;-0.518;2023-06-19T04:33:28;99943.22;;;21.58;44.85
39435;BME280;66825;51.880;-0.518;2023-06-19T04:35:54;100044.78;;;22.20;44.88
39435;BME280;66825;51.880;-0.518;2023-06-19T04:38:19;99948.25;;;21.68;44.88
39435;BME280;66825;51.880;-0.518;2023-06-19T04:40:52;100033.69;;;22.16;44.90
39435;BME280;66825;51.880;-0.518;2023-06-19T04:43:18;100035.75;;;22.19;44.81
39435;BME280;66825;51.880;-0.518;2023-06-19T04:45:43;100010.34;;;21.98;44.88
39435;BME280;66825;51.880;-0.518;2023-06-19T04:48:09;100047.88;;;22.18;44.74
39435;BME280;66825;51.880;-0.518;2023-06-19T04:50:35;100053.34;;;22.18;44.75
39435;BME280;66825;51.880;-0.518;2023-06-19T04:53:00;100050.59;;;22.18;44.91
39435;BME280;66825;51.880;-0.518;2023-06-19T04:55:26;100037.78;;;22.10;44.79
39435;BME280;66825;51.880;-0.518;2023-06-19T04:57:52;100045.13;;;22.18;44.96
39435;BME280;66825;51.880;-0.518;2023-06-19T05:00:18;100056.88;;;22.19;44.95
39435;BME280;66825;51.880;-0.518;2023-06-19T05:02:49;100003.56;;;21.83;44.85
39435;BME280;66825;51.880;-0.518;2023-06-19T05:05:15;100060.31;;;22.16;44.81
39435;BME280;66825;51.880;-0.518;2023-06-19T05:07:41;99900.47;;;21.11;44.71
39435;BME280;66825;51.880;-0.518;2023-06-19T05:10:08;100063.84;;;22.16;44.76
39435;BME280;66825;51.880;-0.518;2023-06-19T05:12:34;100059.50;;;22.15;44.79
39435;BME280;66825;51.880;-0.518;2023-06-19T05:15:01;99982.63;;;21.66;44.76
39435;BME280;66825;51.880;-0.518;2023-06-19T05:17:26;100067.41;;;22.17;45.06
39435;BME280;66825;51.880;-0.518;2023-06-19T05:19:52;100072.91;;;22.17;44.82
39435;BME280;66825;51.880;-0.518;2023-06-19T05:22:17;99984.00;;;21.60;44.78
39435;BME280;66825;51.880;-0.518;2023-06-19T05:24:44;100065.81;;;22.16;44.81
39435;BME280;66825;51.880;-0.518;2023-06-19T05:27:10;100065.56;;;22.09;44.82
39435;BME280;66825;51.880;-0.518;2023-06-19T05:29:35;100062.59;;;22.14;44.78
39435;BME280;66825;51.880;-0.518;2023-06-19T05:32:01;100073.22;;;22.15;44.86
39435;BME280;66825;51.880;-0.518;2023-06-19T05:34:27;100061.47;;;22.15;44.75
39435;BME280;66825;51.880;-0.518;2023-06-19T05:36:52;99962.25;;;21.54;44.80
39435;BME280;66825;51.880;-0.518;2023-06-19T05:39:18;99975.66;;;21.68;44.74
39435;BME280;66825;51.880;-0.518;2023-06-19T05:41:44;100047.75;;;22.15;44.72
39435;BME280;66825;51.880;-0.518;2023-06-19T05:44:11;99953.56;;;21.52;44.65
39435;BME280;66825;51.880;-0.518;2023-06-19T05:46:42;99898.66;;;21.15;44.73
39435;BME280;66825;51.880;-0.518;2023-06-19T05:49:08;99981.97;;;21.69;44.74
39435;BME280;66825;51.880;-0.518;2023-06-19T05:51:34;99972.00;;;21.64;44.72
39435;BME280;66825;51.880;-0.518;2023-06-19T05:53:59;100037.56;;;22.03;44.68
39435;BME280;66825;51.880;-0.518;2023-06-19T05:56:32;100039.94;;;22.04;44.91
39435;BME280;66825;51.880;-0.518;2023-06-19T05:59:01;100052.75;;;22.13;44.60
39435;BME280;66825;51.880;-0.518;2023-06-19T06:01:27;100030.44;;;21.89;44.93
39435;BME280;66825;51.880;-0.518;2023-06-19T06:03:54;100058.59;;;22.11;44.84
39435;BME280;66825;51.880;-0.518;2023-06-19T06:06:20;100055.84;;;22.11;44.81
39435;BME280;66825;51.880;-0.518;2023-06-19T06:08:46;100049.78;;;22.05;44.73
39435;BME280;66825;51.880;-0.518;2023-06-19T06:11:11;99986.72;;;21.60;44.87
39435;BME280;66825;51.880;-0.518;2023-06-19T06:13:37;100057.47;;;22.12;44.75
39435;BME280;66825;51.880;-0.518;2023-06-19T06:16:02;100073.91;;;22.12;44.78
39435;BME280;66825;51.880;-0.518;2023-06-19T06:18:28;100086.50;;;22.13;44.68
39435;BME280;66825;51.880;-0.518;2023-06-19T06:20:53;100052.63;;;21.97;44.72
39435;BME280;66825;51.880;-0.518;2023-06-19T06:23:19;100068.44;;;22.12;44.80
39435;BME280;66825;51.880;-0.518;2023-06-19T06:25:44;100055.97;;;22.02;44.91
39435;BME280;66825;51.880;-0.518;2023-06-19T06:28:11;99995.75;;;21.60;44.76
39435;BME280;66825;51.880;-0.518;2023-06-19T06:30:37;100097.78;;;22.12;44.77
39435;BME280;66825;51.880;-0.518;2023-06-19T06:33:04;100025.81;;;21.69;45.05
39435;BME280;66825;51.880;-0.518;2023-06-19T06:35:30;100104.28;;;22.07;44.71
39435;BME280;66825;51.880;-0.518;2023-06-19T06:37:55;100102.03;;;22.09;44.77
39435;BME280;66825;51.880;-0.518;2023-06-19T06:40:21;100118.94;;;22.11;44.82
39435;BME280;66825;51.880;-0.518;2023-06-19T06:42:46;100110.72;;;22.11;44.80
39435;BME280;66825;51.880;-0.518;2023-06-19T06:45:12;100111.38;;;22.08;44.70
39435;BME280;66825;51.880;-0.518;2023-06-19T06:47:38;100124.44;;;22.11;44.87
39435;BME280;66825;51.880;-0.518;2023-06-19T06:50:06;100016.34;;;21.45;44.57
39435;BME280;66825;51.880;-0.518;2023-06-19T06:52:32;100114.59;;;22.10;44.77
39435;BME280;66825;51.880;-0.518;2023-06-19T06:54:58;100123.97;;;22.09;44.89
39435;BME280;66825;51.880;-0.518;2023-06-19T06:57:24;99962.19;;;21.08;44.55
39435;BME280;66825;51.880;-0.518;2023-06-19T06:59:50;100115.25;;;22.07;44.64
39435;BME280;66825;51.880;-0.518;2023-06-19T07:02:16;100121.69;;;22.11;44.68
39435;BME280;66825;51.880;-0.518;2023-06-19T07:04:41;100123.31;;;22.12;44.72
39435;BME280;66825;51.880;-0.518;2023-06-19T07:07:07;100111.19;;;22.13;44.70
39435;BME280;66825;51.880;-0.518;2023-06-19T07:09:34;100117.47;;;22.14;44.68
39435;BME280;66825;51.880;-0.518;2023-06-19T07:11:59;100014.66;;;21.53;44.59
39435;BME280;66825;51.880;-0.518;2023-06-19T07:14:27;100125.94;;;22.21;44.65
39435;BME280;66825;51.880;-0.518;2023-06-19T07:16:52;100098.81;;;22.07;44.69
39435;BME280;66825;51.880;-0.518;2023-06-19T07:19:18;100114.63;;;22.23;44.51
39435;BME280;66825;51.880;-0.518;2023-06-19T07:21:44;100080.41;;;22.08;44.47
39435;BME280;66825;51.880;-0.518;2023-06-19T07:24:09;100090.63;;;22.19;44.79
39435;BME280;66825;51.880;-0.518;2023-06-19T07:26:35;100115.69;;;22.30;44.73
39435;BME280;66825;51.880;-0.518;2023-06-19T07:29:00;100098.50;;;22.21;44.78
39435;BME280;66825;51.880;-0.518;2023-06-19T07:31:26;100111.91;;;22.35;44.59
39435;BME280;66825;51.880;-0.518;2023-06-19T07:33:51;100096.66;;;22.25;44.68
39435;BME280;66825;51.880;-0.518;2023-06-19T07:36:17;100020.03;;;21.83;44.64
39435;BME280;66825;51.880;-0.518;2023-06-19T07:38:43;100010.41;;;21.77;44.69
39435;BME280;66825;51.880;-0.518;2023-06-19T07:41:09;100059.50;;;22.15;44.65
39435;BME280;66825;51.880;-0.518;2023-06-19T07:43:37;100097.50;;;22.38;44.69
39435;BME280;66825;51.880;-0.518;2023-06-19T07:46:03;100095.09;;;22.36;44.73
39435;BME280;66825;51.880;-0.518;2023-06-19T07:48:29;100090.41;;;22.37;44.83
39435;BME280;66825;51.880;-0.518;2023-06-19T07:50:55;100100.41;;;22.54;44.63
39435;BME280;66825;51.880;-0.518;2023-06-19T07:53:21;100075.34;;;22.43;44.73
39435;BME280;66825;51.880;-0.518;2023-06-19T07:55:47;100100.53;;;22.58;44.68
39435;BME280;66825;51.880;-0.518;2023-06-19T07:58:13;100032.06;;;22.15;44.75
39435;BME280;66825;51.880;-0.518;2023-06-19T08:00:39;99941.41;;;21.62;44.69
39435;BME280;66825;51.880;-0.518;2023-06-19T08:03:04;100100.66;;;22.61;45.19
39435;BME280;66825;51.880;-0.518;2023-06-19T08:05:31;100111.75;;;22.65;44.78
39435;BME280;66825;51.880;-0.518;2023-06-19T08:07:58;100107.84;;;22.66;45.01
39435;BME280;66825;51.880;-0.518;2023-06-19T08:10:24;100034.72;;;22.24;45.02
39435;BME280;66825;51.880;-0.518;2023-06-19T08:12:50;100070.91;;;22.51;45.26
39435;BME280;66825;51.880;-0.518;2023-06-19T08:15:16;100097.91;;;22.74;45.21
39435;BME280;66825;51.880;-0.518;2023-06-19T08:17:42;100103.84;;;22.76;45.23
39435;BME280;66825;51.880;-0.518;2023-06-19T08:20:08;100077.31;;;22.67;46.00
39435;BME280;66825;51.880;-0.518;2023-06-19T08:22:35;100100.50;;;22.82;46.96
39435;BME280;66825;51.880;-0.518;2023-06-19T08:25:03;99975.13;;;22.00;46.34
39435;BME280;66825;51.880;-0.518;2023-06-19T08:27:29;100108.97;;;22.90;45.83
39435;BME280;66825;51.880;-0.518;2023-06-19T08:29:56;100113.44;;;22.94;45.60
39435;BME280;66825;51.880;-0.518;2023-06-19T08:32:22;100026.13;;;22.38;45.83
39435;BME280;66825;51.880;-0.518;2023-06-19T08:34:48;100043.44;;;22.51;45.74
39435;BME280;66825;51.880;-0.518;2023-06-19T08:37:15;100115.25;;;23.03;45.58
39435;BME280;66825;51.880;-0.518;2023-06-19T08:39:41;100116.16;;;23.07;45.44
39435;BME280;66825;51.880;-0.518;2023-06-19T08:42:08;100047.66;;;22.61;46.06
39435;BME280;66825;51.880;-0.518;2023-06-19T08:44:35;100114.66;;;23.09;46.00
39435;BME280;66825;51.880;-0.518;2023-06-19T08:47:05;100137.72;;;23.17;46.03
39435;BME280;66825;51.880;-0.518;2023-06-19T08:49:34;100126.03;;;23.20;46.63
39435;BME280;66825;51.880;-0.518;2023-06-19T08:52:03;100135.84;;;23.21;45.94
39435;BME280;66825;51.880;-0.518;2023-06-19T08:54:29;100126.25;;;23.27;46.05
39435;BME280;66825;51.880;-0.518;2023-06-19T08:56:55;100050.63;;;22.80;46.00
39435;BME280;66825;51.880;-0.518;2023-06-19T08:59:21;100134.34;;;23.36;45.94
39435;BME280;66825;51.880;-0.518;2023-06-19T09:04:27;100131.47;;;23.45;46.01
39435;BME280;66825;51.880;-0.518;2023-06-19T09:07:00;100140.72;;;23.53;45.90
39435;BME280;66825;51.880;-0.518;2023-06-19T09:09:26;100138.09;;;23.56;45.81
39435;BME280;66825;51.880;-0.518;2023-06-19T09:12:07;99974.16;;;22.54;45.85
39435;BME280;66825;51.880;-0.518;2023-06-19T09:14:35;100092.09;;;23.41;45.67
39435;BME280;66825;51.880;-0.518;2023-06-19T09:17:05;100140.06;;;23.72;45.66
39435;BME280;66825;51.880;-0.518;2023-06-19T09:19:32;100127.13;;;23.72;45.40
39435;BME280;66825;51.880;-0.518;2023-06-19T09:22:04;100139.94;;;23.81;45.38
39435;BME280;66825;51.880;-0.518;2023-06-19T09:24:38;100147.03;;;23.82;45.42
39435;BME280;66825;51.880;-0.518;2023-06-19T09:27:12;100139.69;;;23.86;45.64
39435;BME280;66825;51.880;-0.518;2023-06-19T09:29:43;100136.94;;;23.86;45.46
39435;BME280;66825;51.880;-0.518;2023-06-19T09:32:26;100137.50;;;23.91;45.76
39435;BME280;66825;51.880;-0.518;2023-06-19T09:34:53;100128.22;;;23.84;45.31
39435;BME280;66825;51.880;-0.518;2023-06-19T09:37:22;100151.94;;;24.01;45.41
39435;BME280;66825;51.880;-0.518;2023-06-19T09:39:53;100150.84;;;24.05;45.17
39435;BME280;66825;51.880;-0.518;2023-06-19T09:42:26;100149.78;;;24.10;45.48
39435;BME280;66825;51.880;-0.518;2023-06-19T09:44:55;100072.19;;;23.60;45.06
39435;BME280;66825;51.880;-0.518;2023-06-19T09:47:24;100145.28;;;24.18;45.07
39435;BME280;66825;51.880;-0.518;2023-06-19T09:49:55;100142.19;;;24.19;44.93
39435;BME280;66825;51.880;-0.518;2023-06-19T09:52:21;100146.53;;;24.20;44.57
39435;BME280;66825;51.880;-0.518;2023-06-19T09:54:50;100152.22;;;24.27;44.95
39435;BME280;66825;51.880;-0.518;2023-06-19T09:57:16;100149.94;;;24.30;44.92
39435;BME280;66825;51.880;-0.518;2023-06-19T09:59:43;100148.41;;;24.32;44.92
39435;BME280;66825;51.880;-0.518;2023-06-19T10:02:10;100158.81;;;24.39;44.63
39435;BME280;66825;51.880;-0.518;2023-06-19T10:04:47;100151.78;;;24.41;44.85
39435;BME280;66825;51.880;-0.518;2023-06-19T10:07:15;100135.44;;;24.33;44.88
39435;BME280;66825;51.880;-0.518;2023-06-19T10:09:42;100149.66;;;24.51;44.63
39435;BME280;66825;51.880;-0.518;2023-06-19T10:12:13;100065.91;;;24.04;44.18
39435;BME280;66825;51.880;-0.518;2023-06-19T10:14:47;100084.75;;;24.18;44.44
39435;BME280;66825;51.880;-0.518;2023-06-19T10:17:16;100093.19;;;24.25;44.27
39435;BME280;66825;51.880;-0.518;2023-06-19T10:19:49;100120.88;;;24.48;44.16
39435;BME280;66825;51.880;-0.518;2023-06-19T10:22:19;100133.22;;;24.54;44.46
39435;BME280;66825;51.880;-0.518;2023-06-19T10:24:51;100144.00;;;24.60;43.90
39435;BME280;66825;51.880;-0.518;2023-06-19T10:27:21;100128.78;;;24.50;44.08
39435;BME280;66825;51.880;-0.518;2023-06-19T10:29:54;100145.06;;;24.55;44.09
39435;BME280;66825;51.880;-0.518;2023-06-19T10:32:21;100053.75;;;24.05;44.14
39435;BME280;66825;51.880;-0.518;2023-06-19T10:34:47;100142.56;;;24.66;44.05
39435;BME280;66825;51.880;-0.518;2023-06-19T10:37:16;100151.97;;;24.65;44.22
39435;BME280;66825;51.880;-0.518;2023-06-19T10:39:42;100141.75;;;24.65;44.26
39435;BME280;66825;51.880;-0.518;2023-06-19T10:42:09;100151.66;;;24.66;44.48
39435;BME280;66825;51.880;-0.518;2023-06-19T10:44:35;100076.50;;;24.18;44.26
39435;BME280;66825;51.880;-0.518;2023-06-19T10:47:04;100145.00;;;24.67;44.25
39435;BME280;66825;51.880;-0.518;2023-06-19T10:49:29;100152.56;;;24.70;44.59
39435;BME280;66825;51.880;-0.518;2023-06-19T10:51:55;100137.88;;;24.66;44.37
39435;BME280;66825;51.880;-0.518;2023-06-19T10:54:24;100162.56;;;24.79;44.54
39435;BME280;66825;51.880;-0.518;2023-06-19T10:56:50;100155.56;;;24.81;44.38
39435;BME280;66825;51.880;-0.518;2023-06-19T10:59:16;100067.53;;;24.37;44.21
39435;BME280;66825;51.880;-0.518;2023-06-19T11:01:45;100074.59;;;24.38;43.95
39435;BME280;66825;51.880;-0.518;2023-06-19T11:04:11;100138.75;;;24.86;44.31
39435;BME280;66825;51.880;-0.518;2023-06-19T11:06:38;100126.91;;;24.86;44.26
39435;BME280;66825;51.880;-0.518;2023-06-19T11:09:09;100049.50;;;24.39;44.27
39435;BME280;66825;51.880;-0.518;2023-06-19T11:14:05;100130.00;;;25.00;44.42
39435;BME280;66825;51.880;-0.518;2023-06-19T11:16:32;100054.19;;;24.55;44.15
39435;BME280;66825;51.880;-0.518;2023-06-19T11:18:59;100044.78;;;24.56;43.83
39435;BME280;66825;51.880;-0.518;2023-06-19T11:21:34;100063.16;;;24.68;44.03
39435;BME280;66825;51.880;-0.518;2023-06-19T11:24:02;100132.22;;;25.11;44.24
39435;BME280;66825;51.880;-0.518;2023-06-19T11:26:28;100131.13;;;25.15;44.23
39435;BME280;66825;51.880;-0.518;2023-06-19T11:28:54;100113.09;;;25.18;43.87
39435;BME280;66825;51.880;-0.518;2023-06-19T11:31:26;100121.78;;;25.20;43.43
39435;BME280;66825;51.880;-0.518;2023-06-19T11:34:01;100117.88;;;25.21;43.37
39435;BME280;66825;51.880;-0.518;2023-06-19T11:36:28;100099.16;;;25.11;43.83
39435;BME280;66825;51.880;-0.518;2023-06-19T11:38:55;100116.38;;;25.24;43.56
39435;BME280;66825;51.880;-0.518;2023-06-19T11:41:27;100118.38;;;25.27;43.61
39435;BME280;66825;51.880;-0.518;2023-06-19T11:44:04;100108.53;;;25.26;43.70
39435;BME280;66825;51.880;-0.518;2023-06-19T11:46:31;100116.06;;;25.29;43.72
39435;BME280;66825;51.880;-0.518;2023-06-19T11:49:14;100107.09;;;25.32;43.90
39435;BME280;66825;51.880;-0.518;2023-06-19T11:51:40;100084.88;;;25.25;43.57
39435;BME280;66825;51.880;-0.518;2023-06-19T11:54:08;100102.81;;;25.34;43.31
39435;BME280;66825;51.880;-0.518;2023-06-19T11:56:37;100113.56;;;25.40;43.67
39435;BME280;66825;51.880;-0.518;2023-06-19T11:59:03;100046.56;;;25.00;43.70
39435;BME280;66825;51.880;-0.518;2023-06-19T12:01:30;100063.03;;;25.16;43.71
39435;BME280;66825;51.880;-0.518;2023-06-19T12:03:56;100039.44;;;24.99;43.42
39435;BME280;66825;51.880;-0.518;2023-06-19T12:06:22;100045.09;;;25.06;43.52
39435;BME280;66825;51.880;-0.518;2023-06-19T12:08:48;100115.03;;;25.53;43.32
39435;BME280;66825;51.880;-0.518;2023-06-19T12:11:13;100102.75;;;25.50;43.19
39435;BME280;66825;51.880;-0.518;2023-06-19T12:13:43;100069.34;;;25.36;42.94
39435;BME280;66825;51.880;-0.518;2023-06-19T12:16:13;100077.06;;;25.46;43.16
39435;BME280;66825;51.880;-0.518;2023-06-19T12:18:39;100046.56;;;25.19;43.17
39435;BME280;66825;51.880;-0.518;2023-06-19T12:21:05;100088.97;;;25.50;43.01
39435;BME280;66825;51.880;-0.518;2023-06-19T12:23:31;100105.88;;;25.68;43.23
39435;BME280;66825;51.880;-0.518;2023-06-19T12:25:56;100024.16;;;25.21;43.32
39435;BME280;66825;51.880;-0.518;2023-06-19T12:28:22;100069.28;;;25.52;43.16
39435;BME280;66825;51.880;-0.518;2023-06-19T12:30:48;100105.22;;;25.75;43.16
39435;BME280;66825;51.880;-0.518;2023-06-19T12:33:17;100079.69;;;25.59;42.94
39435;BME280;66825;51.880;-0.518;2023-06-19T12:35:43;100109.94;;;25.75;43.00
39435;BME280;66825;51.880;-0.518;2023-06-19T12:38:09;100082.44;;;25.59;43.14
39435;BME280;66825;51.880;-0.518;2023-06-19T12:40:36;100083.66;;;25.61;43.03
39435;BME280;66825;51.880;-0.518;2023-06-19T12:43:02;99990.81;;;25.07;43.10
39435;BME280;66825;51.880;-0.518;2023-06-19T12:45:27;100103.31;;;25.79;43.18
39435;BME280;66825;51.880;-0.518;2023-06-19T12:47:53;100093.16;;;25.83;43.16